Butte Des Morts, Wisconsin
Current Conditions -  °F | °C
As of 3:53 PM on Monday 20 Oct 2014 (Local Time) from KOSH Reporting Station
Overcast Overcast  
Wind Chill: 53°   Ceiling: 5500
Heat Index: 53°   Visibility: 10mi
Dew Point: 44°   Wind: 14mph
Humidity: 71%   Direction: 320°NW
Pressure: 29.92"   Gusts: NA
Location:  44.1°N, 88.65°W
Report Text: KOSH 202053Z 32012KT 10SM BKN055 OVC065 12/07 A2992 RMK AO2 SLP133 T01170067 53013
Loading
Personal Weather Stations






























Interactive Weather Map
Tropical Storm Tracking
New forecast layout! Learn more

10-Day Weather Forecast

Advertisements
Track Severe Weather on mobile